Time;durP1;ratioP1;P1;durP2;ratioP2;P2;SDS_P1;SDS_P2;PMS_P1;PMS_P2;Temp;Humidity;BMP_temperature;BMP_pressure;BME280_temperature;BME280_humidity;BME280_pressure;Samples;Min_cycle;Max_cycle;Signal;HPM_P1;HPM_P2
2023/01/16 00:01:57;;;;;;;5.28;2.25;;;2.10;99.90;;;;;;5009769;28;20054;-69
2023/01/16 00:04:24;;;;;;;4.28;2.08;;;2.10;99.90;;;;;;5009316;28;20077;-70
2023/01/16 00:06:52;;;;;;;3.55;2.15;;;2.20;99.90;;;;;;5010914;28;20128;-68
2023/01/16 00:09:20;;;;;;;3.97;2.03;;;2.30;99.90;;;;;;5009927;28;20042;-70
2023/01/16 00:11:47;;;;;;;4.47;2.05;;;2.30;99.90;;;;;;5026967;28;20419;-67
2023/01/16 00:14:14;;;;;;;6.45;2.42;;;2.30;99.90;;;;;;5028945;28;20042;-68
2023/01/16 00:16:42;;;;;;;3.60;2.00;;;2.20;99.90;;;;;;5023215;28;20520;-68
2023/01/16 00:19:09;;;;;;;6.00;2.75;;;2.20;99.90;;;;;;5009049;28;20045;-67
2023/01/16 00:21:36;;;;;;;12.55;2.42;;;2.20;99.90;;;;;;5010194;28;20064;-68
2023/01/16 00:24:06;;;;;;;5.03;2.03;;;2.20;99.90;;;;;;5005162;28;20046;-69
2023/01/16 00:26:34;;;;;;;5.63;2.20;;;2.20;99.90;;;;;;4991341;28;20525;-67
2023/01/16 00:29:02;;;;;;;5.72;1.95;;;2.20;99.90;;;;;;5004804;28;20052;-67
2023/01/16 00:31:29;;;;;;;4.85;2.17;;;2.30;99.90;;;;;;5008842;28;20042;-69
2023/01/16 00:33:57;;;;;;;5.68;2.67;;;2.30;99.90;;;;;;5010061;28;20487;-68
2023/01/16 00:36:24;;;;;;;7.57;2.53;;;2.30;99.90;;;;;;5029337;28;20045;-67
2023/01/16 00:38:51;;;;;;;7.55;3.20;;;2.30;99.90;;;;;;5033341;28;20049;-68
2023/01/16 00:41:18;;;;;;;6.82;2.78;;;2.30;99.90;;;;;;5033719;28;20480;-68
2023/01/16 00:43:46;;;;;;;6.03;2.70;;;2.20;99.90;;;;;;5016511;28;20042;-68
2023/01/16 00:46:13;;;;;;;6.07;2.45;;;2.20;99.90;;;;;;5032434;28;20057;-68
2023/01/16 00:48:40;;;;;;;5.35;2.45;;;2.20;99.90;;;;;;5033171;28;20504;-68
2023/01/16 00:51:08;;;;;;;9.88;2.33;;;2.20;99.90;;;;;;5032433;28;20049;-70
2023/01/16 00:53:35;;;;;;;6.60;2.30;;;2.20;99.90;;;;;;5031174;28;20516;-67
2023/01/16 00:56:02;;;;;;;5.53;2.42;;;2.20;99.90;;;;;;5028932;28;20603;-68
2023/01/16 00:58:31;;;;;;;5.95;2.55;;;2.10;99.90;;;;;;5011778;28;20041;-68
2023/01/16 01:00:59;;;;;;;5.63;2.30;;;2.00;99.90;;;;;;5012346;28;20042;-70
2023/01/16 01:03:28;;;;;;;7.88;2.50;;;2.10;99.90;;;;;;5013897;28;20064;-67
2023/01/16 01:05:55;;;;;;;6.82;2.25;;;2.10;99.90;;;;;;5021425;28;20080;-67
2023/01/16 01:08:22;;;;;;;6.18;2.30;;;2.10;99.90;;;;;;5033533;28;20076;-68
2023/01/16 01:10:50;;;;;;;5.50;2.33;;;2.10;99.90;;;;;;5031121;28;20064;-67
2023/01/16 01:13:17;;;;;;;5.22;2.05;;;2.10;99.90;;;;;;5033215;28;20504;-68
2023/01/16 01:15:45;;;;;;;5.80;2.40;;;2.10;99.90;;;;;;5012680;28;20180;-68
2023/01/16 01:18:12;;;;;;;6.25;2.40;;;2.10;99.90;;;;;;5012209;28;20046;-70
2023/01/16 01:20:39;;;;;;;4.47;2.30;;;2.20;99.90;;;;;;5012339;28;20041;-67
2023/01/16 01:23:07;;;;;;;6.18;2.33;;;2.20;99.90;;;;;;4996737;28;20155;-67
2023/01/16 01:25:37;;;;;;;8.57;3.53;;;2.20;99.90;;;;;;5024728;28;20067;-70
2023/01/16 01:28:05;;;;;;;7.35;2.30;;;2.20;99.90;;;;;;5030806;28;20052;-69
2023/01/16 01:30:32;;;;;;;8.38;2.38;;;2.30;99.90;;;;;;5013375;28;20547;-68
2023/01/16 01:32:59;;;;;;;9.60;2.38;;;2.30;99.90;;;;;;5033048;28;20128;-67
2023/01/16 01:35:27;;;;;;;10.02;2.33;;;2.20;99.90;;;;;;5029291;28;20060;-67
2023/01/16 01:37:54;;;;;;;8.18;2.25;;;2.20;99.90;;;;;;5032442;28;20053;-70
2023/01/16 01:40:22;;;;;;;3.90;2.05;;;2.20;99.90;;;;;;5029961;28;20132;-70
2023/01/16 01:42:53;;;;;;;5.68;2.13;;;2.20;99.90;;;;;;5032805;28;20079;-70
2023/01/16 01:45:28;;;;;;;6.47;2.10;;;2.20;99.90;;;;;;5031694;28;20045;-68
2023/01/16 01:48:11;;;;;;;4.57;2.30;;;2.30;99.90;;;;;;5032238;28;20559;-67
2023/01/16 01:50:51;;;;;;;5.28;2.40;;;2.20;99.90;;;;;;5027656;28;20056;-68
2023/01/16 01:53:35;;;;;;;6.60;2.40;;;2.30;99.90;;;;;;5000418;28;20146;-68
2023/01/16 01:56:09;;;;;;;6.80;2.50;;;2.30;99.90;;;;;;4997355;28;20145;-67
2023/01/16 01:58:38;;;;;;;7.97;2.20;;;2.20;99.90;;;;;;5023989;28;20045;-68
2023/01/16 02:01:12;;;;;;;5.53;2.33;;;2.20;99.90;;;;;;5024281;28;20138;-69
2023/01/16 02:03:45;;;;;;;4.53;2.28;;;2.10;99.90;;;;;;5012300;28;20125;-68
2023/01/16 02:06:19;;;;;;;9.57;3.08;;;2.10;99.90;;;;;;5011196;28;20148;-68
2023/01/16 02:08:50;;;;;;;5.47;2.10;;;2.10;99.90;;;;;;5011206;28;20046;-68
2023/01/16 02:11:35;;;;;;;4.03;2.08;;;2.00;99.90;;;;;;5010693;28;20049;-68
2023/01/16 02:14:09;;;;;;;5.43;1.85;;;2.10;99.90;;;;;;5011140;28;20508;-67
2023/01/16 02:19:43;;;;;;;4.38;1.90;;;2.20;99.90;;;;;;4999715;28;20092;-70
2023/01/16 02:22:30;;;;;;;7.35;2.05;;;2.20;99.90;;;;;;5008698;28;20432;-68
2023/01/16 02:25:19;;;;;;;5.88;2.00;;;2.20;99.90;;;;;;5010730;28;20046;-68
2023/01/16 02:28:17;;;;;;;3.67;1.77;;;2.30;99.90;;;;;;5011753;28;20073;-68
2023/01/16 02:31:06;;;;;;;4.70;1.90;;;2.30;99.90;;;;;;5011881;28;20464;-67
2023/01/16 02:33:54;;;;;;;4.00;1.70;;;2.40;99.90;;;;;;5010670;28;20469;-67
2023/01/16 02:36:46;;;;;;;6.53;2.15;;;2.40;99.90;;;;;;4998442;28;20485;-66
2023/01/16 02:39:19;;;;;;;4.57;1.98;;;2.40;99.90;;;;;;5010231;28;20054;-67
2023/01/16 02:42:03;;;;;;;6.32;2.10;;;2.40;99.90;;;;;;5012173;28;20041;-66
2023/01/16 02:44:51;;;;;;;6.90;1.90;;;2.50;99.90;;;;;;4999223;28;20034;-67
2023/01/16 02:47:49;;;;;;;6.03;1.95;;;2.50;99.90;;;;;;4987786;28;20042;-66
2023/01/16 02:50:39;;;;;;;5.88;1.95;;;2.50;99.90;;;;;;5004965;28;20426;-66
2023/01/16 02:53:26;;;;;;;3.58;1.80;;;2.50;99.90;;;;;;5007320;28;20054;-66
2023/01/16 02:55:57;;;;;;;3.80;1.80;;;2.60;99.90;;;;;;4997259;28;20057;-68
2023/01/16 02:58:27;;;;;;;3.25;1.50;;;2.60;99.90;;;;;;5010488;28;20497;-67
2023/01/16 03:00:57;;;;;;;5.18;1.90;;;2.70;99.90;;;;;;5009122;28;20046;-66
2023/01/16 03:03:49;;;;;;;4.35;1.85;;;2.70;99.90;;;;;;5009890;28;20060;-66
2023/01/16 03:06:19;;;;;;;4.82;1.98;;;2.70;99.90;;;;;;5010600;28;20680;-67
2023/01/16 03:08:52;;;;;;;4.82;1.90;;;2.70;99.90;;;;;;5011198;28;20057;-67
2023/01/16 03:11:22;;;;;;;3.35;1.80;;;2.70;99.90;;;;;;5010697;28;20049;-68
2023/01/16 03:14:07;;;;;;;5.07;2.00;;;2.70;99.90;;;;;;5011645;28;20034;-65
2023/01/16 03:16:56;;;;;;;4.00;1.92;;;2.70;99.90;;;;;;4976673;28;20132;-67
2023/01/16 03:19:41;;;;;;;4.65;1.80;;;2.70;99.90;;;;;;5009591;28;20104;-66
2023/01/16 03:22:23;;;;;;;5.97;1.90;;;2.70;99.90;;;;;;5010328;28;20045;-67
2023/01/16 03:24:59;;;;;;;;;;;2.70;99.90;;;;;;5011311;28;20052;-66
2023/01/16 03:27:55;;;;;;;6.45;1.65;;;2.80;99.90;;;;;;5029698;28;19932;-69
2023/01/16 03:30:35;;;;;;;3.85;1.73;;;2.90;99.90;;;;;;5029310;28;20522;-69
2023/01/16 03:33:25;;;;;;;4.22;1.60;;;3.00;99.90;;;;;;5019370;28;20235;-70
2023/01/16 03:36:12;;;;;;;7.97;1.85;;;2.90;99.90;;;;;;5020470;28;20048;-68
2023/01/16 03:38:42;;;;;;;4.57;1.70;;;2.90;99.90;;;;;;5022243;28;20474;-70
2023/01/16 03:41:13;;;;;;;3.40;1.60;;;2.90;99.90;;;;;;5029267;28;20592;-71
2023/01/16 03:43:44;;;;;;;6.70;1.95;;;2.90;99.90;;;;;;5011480;28;20119;-70
2023/01/16 03:46:29;;;;;;;3.10;1.80;;;2.90;99.90;;;;;;5028339;28;20558;-67
2023/01/16 03:49:22;;;;;;;4.28;1.67;;;2.90;99.90;;;;;;5027189;28;20049;-70
2023/01/16 03:51:55;;;;;;;4.75;1.90;;;2.70;99.90;;;;;;5029798;28;20169;-68
2023/01/16 03:54:41;;;;;;;3.28;1.75;;;2.60;99.90;;;;;;5021873;28;20512;-68
2023/01/16 03:57:30;;;;;;;4.03;1.80;;;2.50;99.90;;;;;;5020792;28;20044;-70
2023/01/16 03:59:59;;;;;;;5.60;1.80;;;2.40;99.90;;;;;;5008389;28;20048;-69
2023/01/16 04:02:48;;;;;;;3.90;1.90;;;2.30;99.90;;;;;;5029239;28;20041;-68
2023/01/16 04:05:24;;;;;;;7.20;2.00;;;2.20;99.90;;;;;;5028562;28;20042;-68
2023/01/16 04:07:55;;;;;;;6.25;1.80;;;2.10;99.90;;;;;;5030670;28;20053;-67
2023/01/16 04:10:27;;;;;;;3.25;1.70;;;2.10;99.90;;;;;;5017355;28;20072;-68
2023/01/16 04:12:58;;;;;;;5.35;1.75;;;2.00;99.90;;;;;;5023213;28;20049;-68
2023/01/16 04:15:29;;;;;;;4.10;1.70;;;2.00;99.90;;;;;;5032387;28;20116;-68
2023/01/16 04:17:57;;;;;;;5.33;1.70;;;1.90;99.90;;;;;;5013776;28;20109;-68
2023/01/16 04:20:27;;;;;;;8.27;1.88;;;1.90;99.90;;;;;;5013829;28;20038;-68
2023/01/16 04:22:54;;;;;;;2.45;1.50;;;1.80;99.90;;;;;;5013239;28;20366;-68
2023/01/16 04:25:21;;;;;;;3.28;1.80;;;1.80;99.90;;;;;;5013236;28;20563;-67
2023/01/16 04:27:49;;;;;;;8.52;2.53;;;1.80;99.90;;;;;;5015581;28;20064;-67
2023/01/16 04:30:16;;;;;;;3.63;1.60;;;1.70;99.90;;;;;;5032293;28;20148;-68
2023/01/16 04:32:44;;;;;;;6.35;2.05;;;1.70;99.90;;;;;;5032043;28;20140;-67
2023/01/16 04:35:11;;;;;;;6.85;1.70;;;1.70;99.90;;;;;;5023542;28;20038;-68
2023/01/16 04:37:38;;;;;;;6.50;1.90;;;1.70;99.90;;;;;;5013611;28;20717;-68
2023/01/16 04:40:08;;;;;;;6.32;1.90;;;1.60;99.90;;;;;;5010823;28;20058;-68
2023/01/16 04:42:36;;;;;;;4.60;1.85;;;1.60;99.90;;;;;;5014503;28;20492;-68
2023/01/16 04:45:03;;;;;;;4.20;2.08;;;1.60;99.90;;;;;;5013090;28;20053;-70
2023/01/16 04:47:31;;;;;;;5.03;2.05;;;1.50;99.90;;;;;;5014224;28;20037;-67
2023/01/16 04:49:58;;;;;;;4.32;1.90;;;1.50;99.90;;;;;;5013420;28;20486;-68
2023/01/16 04:52:25;;;;;;;6.07;1.77;;;1.40;99.90;;;;;;5012439;28;20448;-68
2023/01/16 04:54:52;;;;;;;4.28;1.60;;;1.40;99.90;;;;;;5017133;28;20538;-68
2023/01/16 04:57:20;;;;;;;6.47;2.20;;;1.40;99.90;;;;;;5031062;28;20056;-68
2023/01/16 04:59:47;;;;;;;7.07;2.13;;;1.30;99.90;;;;;;5013155;28;20503;-68
2023/01/16 05:02:15;;;;;;;5.93;2.08;;;1.20;99.90;;;;;;4994688;28;20510;-68
2023/01/16 05:04:42;;;;;;;3.22;1.90;;;1.10;99.90;;;;;;5012654;28;20046;-68
2023/01/16 05:07:09;;;;;;;5.30;2.35;;;1.10;99.90;;;;;;5013283;28;20053;-68
2023/01/16 05:09:37;;;;;;;3.33;2.00;;;1.00;99.90;;;;;;5013675;28;20373;-68
2023/01/16 05:12:04;;;;;;;7.15;1.98;;;1.00;99.90;;;;;;5030289;28;20045;-66
2023/01/16 05:14:31;;;;;;;5.75;2.20;;;1.00;99.90;;;;;;5014035;28;20045;-67
2023/01/16 05:16:59;;;;;;;8.68;2.30;;;1.00;99.90;;;;;;5010636;28;20125;-67
2023/01/16 05:19:26;;;;;;;4.10;2.13;;;0.90;99.90;;;;;;5012179;28;20497;-67
2023/01/16 05:21:53;;;;;;;6.50;2.20;;;0.80;99.90;;;;;;5011881;28;20054;-67
2023/01/16 05:24:20;;;;;;;6.50;2.15;;;0.80;99.90;;;;;;5011875;28;20496;-67
2023/01/16 05:26:49;;;;;;;4.03;1.90;;;0.70;99.90;;;;;;5011702;28;20500;-67
2023/01/16 05:29:17;;;;;;;6.72;2.13;;;0.70;99.90;;;;;;5025027;28;20058;-68
2023/01/16 05:31:44;;;;;;;5.07;2.40;;;0.60;99.90;;;;;;5011809;28;20057;-68
2023/01/16 05:34:11;;;;;;;3.47;1.88;;;0.70;99.90;;;;;;5016616;28;20402;-68
2023/01/16 05:36:38;;;;;;;10.38;4.90;;;0.60;99.90;;;;;;5010290;28;20041;-68
2023/01/16 05:39:06;;;;;;;8.70;3.55;;;0.60;99.90;;;;;;5021580;28;20476;-67
2023/01/16 05:41:33;;;;;;;7.35;2.38;;;0.70;99.90;;;;;;5031550;28;20049;-68
2023/01/16 05:44:00;;;;;;;4.70;2.20;;;0.70;99.90;;;;;;5030670;28;20046;-68
2023/01/16 05:46:28;;;;;;;4.85;1.98;;;0.70;99.90;;;;;;5031760;28;20045;-67
2023/01/16 05:48:55;;;;;;;5.63;2.10;;;0.60;99.90;;;;;;5031273;28;20116;-68
2023/01/16 05:51:22;;;;;;;2.95;1.90;;;0.70;99.90;;;;;;5031120;28;20152;-68
2023/01/16 05:53:51;;;;;;;3.67;1.88;;;0.70;99.90;;;;;;5022170;28;20515;-68
2023/01/16 05:56:21;;;;;;;5.45;1.95;;;0.70;99.90;;;;;;5011571;28;20565;-68
2023/01/16 05:58:49;;;;;;;7.93;2.20;;;0.70;99.90;;;;;;5002612;28;20034;-68
2023/01/16 06:01:16;;;;;;;5.38;1.67;;;0.70;99.90;;;;;;5015628;28;20077;-68
2023/01/16 06:03:44;;;;;;;7.70;2.08;;;0.70;99.90;;;;;;5018676;28;20058;-67
2023/01/16 06:06:11;;;;;;;3.55;1.80;;;0.70;99.90;;;;;;5016125;28;20469;-67
2023/01/16 06:08:38;;;;;;;5.88;2.30;;;0.70;99.90;;;;;;5003056;28;20042;-67
2023/01/16 06:11:05;;;;;;;6.70;2.97;;;0.70;99.90;;;;;;5008906;28;20042;-68
2023/01/16 06:13:33;;;;;;;6.78;3.45;;;0.70;99.90;;;;;;5008723;28;20041;-68
2023/01/16 06:16:00;;;;;;;6.75;2.83;;;0.70;99.90;;;;;;5007242;28;20061;-68
2023/01/16 06:18:27;;;;;;;5.25;2.63;;;0.70;99.90;;;;;;5011499;28;20134;-68
2023/01/16 06:20:55;;;;;;;9.05;3.88;;;0.70;99.90;;;;;;5011689;28;20048;-68
2023/01/16 06:23:22;;;;;;;6.30;3.38;;;0.60;99.90;;;;;;5010879;28;20034;-68
2023/01/16 06:25:50;;;;;;;5.93;2.53;;;0.60;99.90;;;;;;5010923;28;20216;-68
2023/01/16 06:28:17;;;;;;;10.68;2.90;;;0.70;99.90;;;;;;5010596;28;20048;-69
2023/01/16 06:30:44;;;;;;;4.90;2.83;;;0.70;99.90;;;;;;5022715;28;20037;-68
2023/01/16 06:33:12;;;;;;;7.10;3.00;;;0.70;99.90;;;;;;4999562;28;20669;-68
2023/01/16 06:35:39;;;;;;;6.22;2.97;;;0.60;99.90;;;;;;5008495;28;20084;-68
2023/01/16 06:38:06;;;;;;;4.68;2.60;;;0.60;99.90;;;;;;5008872;28;20493;-68
2023/01/16 06:40:33;;;;;;;9.77;5.25;;;0.60;99.90;;;;;;5011041;28;20622;-69
2023/01/16 06:43:00;;;;;;;11.25;5.60;;;0.70;99.90;;;;;;5022943;28;20073;-69
2023/01/16 06:45:28;;;;;;;13.52;5.85;;;0.80;99.90;;;;;;5008901;28;20046;-67
2023/01/16 06:47:55;;;;;;;9.88;3.63;;;0.80;99.90;;;;;;5011210;28;20052;-68
2023/01/16 06:50:22;;;;;;;8.10;3.55;;;0.70;99.90;;;;;;5010247;28;20488;-68
2023/01/16 06:52:50;;;;;;;8.38;3.08;;;0.80;99.90;;;;;;5009737;28;20404;-67
2023/01/16 06:55:17;;;;;;;8.27;3.60;;;0.70;99.90;;;;;;5010463;28;20045;-70
2023/01/16 06:57:45;;;;;;;8.32;4.00;;;0.70;99.90;;;;;;5007841;28;20135;-68
2023/01/16 07:00:13;;;;;;;11.75;4.50;;;0.70;99.90;;;;;;5010073;28;20034;-68
2023/01/16 07:02:40;;;;;;;8.80;3.60;;;0.70;99.90;;;;;;5009769;28;20073;-67
2023/01/16 07:05:09;;;;;;;8.43;3.70;;;0.70;99.90;;;;;;5009481;28;20115;-69
2023/01/16 07:07:36;;;;;;;8.40;3.47;;;0.70;99.90;;;;;;5011095;28;20449;-67
2023/01/16 07:10:04;;;;;;;7.25;3.50;;;0.80;99.90;;;;;;5006299;28;20531;-67
2023/01/16 07:12:31;;;;;;;8.60;3.90;;;0.80;99.90;;;;;;5010184;28;20112;-67
2023/01/16 07:23:22;;;;;;;9.30;4.43;;;1.00;99.90;;;;;;4998247;28;20042;-68
2023/01/16 07:25:52;;;;;;;9.23;3.95;;;1.10;99.90;;;;;;5010465;28;20060;-68
2023/01/16 07:28:20;;;;;;;6.32;2.53;;;1.10;99.90;;;;;;5009263;28;20489;-68
2023/01/16 07:30:49;;;;;;;5.72;2.60;;;1.20;99.90;;;;;;5009264;28;20033;-70
2023/01/16 07:33:16;;;;;;;5.07;2.60;;;1.20;99.90;;;;;;5007717;28;20076;-69
2023/01/16 07:35:45;;;;;;;7.60;2.63;;;1.20;99.90;;;;;;5007817;28;20042;-68
2023/01/16 07:38:12;;;;;;;6.55;2.45;;;1.30;99.90;;;;;;5007268;28;20126;-69
2023/01/16 07:40:40;;;;;;;4.60;2.20;;;1.30;99.90;;;;;;5007582;28;20038;-68
2023/01/16 07:43:07;;;;;;;7.13;2.85;;;1.30;99.90;;;;;;5006735;28;20041;-69
2023/01/16 07:45:34;;;;;;;8.43;2.60;;;1.40;99.90;;;;;;5007877;28;20072;-68
2023/01/16 07:48:02;;;;;;;10.88;4.97;;;1.50;99.90;;;;;;4996042;28;20063;-69
2023/01/16 07:50:29;;;;;;;14.45;6.18;;;1.60;99.90;;;;;;5013064;28;20483;-68
2023/01/16 07:52:57;;;;;;;3.80;2.40;;;1.70;99.90;;;;;;5020603;28;20037;-68
2023/01/16 07:55:24;;;;;;;6.03;2.50;;;1.80;99.90;;;;;;5019137;28;20049;-70
2023/01/16 07:57:52;;;;;;;5.80;2.20;;;1.90;99.90;;;;;;5011649;28;20045;-69
2023/01/16 08:00:19;;;;;;;5.78;2.40;;;1.90;99.90;;;;;;5028694;28;20075;-69
2023/01/16 08:02:46;;;;;;;6.80;2.90;;;2.00;99.90;;;;;;5032108;28;20069;-70
2023/01/16 08:05:14;;;;;;;7.10;2.50;;;2.10;99.90;;;;;;5033330;28;20576;-71
2023/01/16 08:07:41;;;;;;;5.13;2.30;;;2.20;99.90;;;;;;5033595;28;20419;-70
2023/01/16 08:10:09;;;;;;;12.15;3.10;;;2.20;99.90;;;;;;5025124;28;20050;-70
2023/01/16 08:12:38;;;;;;;5.47;2.55;;;2.20;99.90;;;;;;5020575;28;20048;-70
2023/01/16 08:15:06;;;;;;;9.10;3.85;;;2.30;99.90;;;;;;5016874;28;20042;-70
2023/01/16 08:17:33;;;;;;;8.85;4.35;;;2.40;99.90;;;;;;5011984;28;20179;-70
2023/01/16 08:20:01;;;;;;;5.95;2.60;;;2.40;99.90;;;;;;5012980;28;20525;-70
2023/01/16 08:22:29;;;;;;;6.93;2.47;;;2.50;99.90;;;;;;5013495;28;20054;-70
2023/01/16 08:24:56;;;;;;;5.38;2.75;;;2.50;99.90;;;;;;5022756;28;20045;-70
2023/01/16 08:27:24;;;;;;;5.43;2.65;;;2.60;99.90;;;;;;5034116;28;20060;-70
2023/01/16 08:29:52;;;;;;;3.50;1.83;;;2.60;99.90;;;;;;5014711;28;20191;-70
2023/01/16 08:32:19;;;;;;;5.30;2.60;;;2.60;99.90;;;;;;5019294;28;20522;-70
2023/01/16 08:34:46;;;;;;;7.53;2.70;;;2.70;99.90;;;;;;5031762;28;20083;-69
2023/01/16 08:37:14;;;;;;;7.60;3.00;;;2.70;99.90;;;;;;5023612;28;20471;-69
2023/01/16 08:39:42;;;;;;;7.38;2.65;;;2.70;99.90;;;;;;5012562;28;20045;-71
2023/01/16 08:53:12;;;;;;;6.43;2.78;;;3.30;99.90;;;;;;5032643;28;20065;-70
2023/01/16 08:55:39;;;;;;;7.07;2.63;;;3.40;99.90;;;;;;5031335;28;20072;-69
2023/01/16 08:58:07;;;;;;;4.72;2.58;;;3.40;99.90;;;;;;5033211;28;20484;-69
2023/01/16 09:00:34;;;;;;;4.00;2.10;;;3.50;99.90;;;;;;5024968;28;20038;-70
2023/01/16 09:03:02;;;;;;;5.57;2.40;;;3.60;99.90;;;;;;5011339;28;20558;-70
2023/01/16 09:05:30;;;;;;;5.82;2.10;;;3.60;99.90;;;;;;4994238;28;20058;-68
2023/01/16 09:07:58;;;;;;;7.97;2.92;;;3.80;99.90;;;;;;5011425;28;20140;-69
2023/01/16 09:10:25;;;;;;;4.20;1.90;;;3.90;99.90;;;;;;4981977;28;20050;-70
2023/01/16 09:15:38;;;;;;;8.13;2.92;;;4.10;99.90;;;;;;5030911;28;20046;-69
2023/01/16 09:18:05;;;;;;;9.82;4.85;;;4.20;99.90;;;;;;5013199;28;20054;-69
2023/01/16 09:20:33;;;;;;;5.25;2.58;;;4.40;99.90;;;;;;5012853;28;20046;-69
2023/01/16 09:23:02;;;;;;;4.25;2.25;;;4.60;99.90;;;;;;4995852;28;20061;-70
2023/01/16 09:25:30;;;;;;;5.45;2.25;;;4.60;99.90;;;;;;5012898;28;20040;-70
2023/01/16 09:27:59;;;;;;;3.78;2.30;;;4.70;99.90;;;;;;5009717;28;20083;-70
2023/01/16 09:30:27;;;;;;;4.63;2.50;;;4.80;99.90;;;;;;5010246;28;20049;-70
2023/01/16 09:32:54;;;;;;;5.07;2.53;;;4.90;99.90;;;;;;5008624;28;20050;-69
2023/01/16 09:35:22;;;;;;;5.35;2.80;;;4.90;99.90;;;;;;5011560;28;20044;-69
2023/01/16 09:37:49;;;;;;;4.95;2.90;;;5.10;99.90;;;;;;4995792;28;20041;-69
2023/01/16 09:40:20;;;;;;;5.70;3.30;;;5.10;99.90;;;;;;5010558;28;20053;-69
2023/01/16 09:46:01;;;;;;;5.78;2.45;;;5.50;99.90;;;;;;5012929;28;20042;-70
2023/01/16 09:48:35;;;;;;;4.05;2.22;;;5.70;99.90;;;;;;5021194;28;20449;-70
2023/01/16 09:51:14;;;;;;;5.05;2.17;;;5.70;99.90;;;;;;5030847;28;20045;-68
2023/01/16 09:59:46;;;;;;;4.40;2.40;;;5.90;99.90;;;;;;4989841;28;20052;-69
2023/01/16 10:02:26;;;;;;;8.63;4.38;;;6.10;99.90;;;;;;4988477;28;20107;-68
2023/01/16 10:04:55;;;;;;;7.68;3.25;;;6.20;99.90;;;;;;5008566;28;20050;-69
2023/01/16 10:07:46;;;;;;;7.00;2.38;;;6.20;99.90;;;;;;4992677;28;20092;-67
2023/01/16 10:10:27;;;;;;;3.70;2.30;;;6.20;99.90;;;;;;4997510;28;20046;-67
2023/01/16 10:13:19;;;;;;;4.00;2.13;;;6.10;99.90;;;;;;4980309;28;20045;-67
2023/01/16 10:16:12;;;;;;;4.13;2.30;;;6.10;99.90;;;;;;4972691;28;20070;-69
2023/01/16 10:18:50;;;;;;;2.58;2.10;;;6.00;99.90;;;;;;4988566;28;20050;-69
2023/01/16 10:21:27;;;;;;;3.80;2.33;;;6.10;99.90;;;;;;4974340;28;20046;-69
2023/01/16 10:24:18;;;;;;;3.35;2.30;;;6.10;99.90;;;;;;5010003;28;20050;-69
2023/01/16 10:26:58;;;;;;;3.88;2.50;;;6.20;99.90;;;;;;5008846;28;20397;-69
2023/01/16 10:29:30;;;;;;;8.88;3.03;;;6.40;99.90;;;;;;4991927;28;20050;-69
2023/01/16 10:32:13;;;;;;;4.85;2.85;;;6.50;99.90;;;;;;4990238;28;20065;-68
2023/01/16 10:34:42;;;;;;;5.95;3.35;;;6.70;99.90;;;;;;5002236;28;20065;-69
2023/01/16 10:37:11;;;;;;;9.85;3.47;;;6.90;99.90;;;;;;4973129;28;20050;-69
2023/01/16 10:39:38;;;;;;;6.80;2.58;;;7.00;99.90;;;;;;5007720;28;20038;-68
2023/01/16 10:50:29;;;;;;;6.32;2.70;;;7.60;99.90;;;;;;5011368;28;20041;-68
2023/01/16 10:53:08;;;;;;;5.22;2.58;;;7.80;99.90;;;;;;4991897;28;20473;-69
2023/01/16 10:55:39;;;;;;;4.22;2.35;;;8.30;99.90;;;;;;4991166;28;20209;-69
2023/01/16 10:58:26;;;;;;;5.90;2.40;;;8.60;99.90;;;;;;4995900;28;20401;-69
2023/01/16 11:01:06;;;;;;;5.15;2.90;;;9.00;99.90;;;;;;5009839;28;20053;-70
2023/01/16 11:03:38;;;;;;;4.85;2.63;;;8.80;99.90;;;;;;5030518;28;20046;-69
2023/01/16 11:06:07;;;;;;;5.13;3.28;;;8.60;99.90;;;;;;5029716;28;20045;-69
2023/01/16 11:08:35;;;;;;;11.75;6.15;;;8.70;99.90;;;;;;5029851;28;20519;-70
2023/01/16 11:11:03;;;;;;;3.72;2.95;;;9.10;99.90;;;;;;5029655;28;20408;-69
2023/01/16 11:19:20;;;;;;;4.32;2.67;;;9.30;99.90;;;;;;4993846;28;20054;-68
2023/01/16 11:22:08;;;;;;;5.03;3.40;;;9.00;99.90;;;;;;5013796;28;20422;-70
2023/01/16 11:24:39;;;;;;;5.20;2.97;;;9.20;99.90;;;;;;5030740;28;20516;-69
2023/01/16 11:27:15;;;;;;;6.88;3.45;;;9.60;99.90;;;;;;5028847;28;20056;-70
2023/01/16 11:29:43;;;;;;;5.75;3.10;;;10.30;99.90;;;;;;5010890;28;20058;-69
2023/01/16 11:32:13;;;;;;;4.30;2.67;;;11.20;99.90;;;;;;5022428;28;20042;-70
2023/01/16 11:34:46;;;;;;;5.63;3.20;;;11.80;99.90;;;;;;5030000;28;20128;-70
2023/01/16 11:37:16;;;;;;;3.83;2.80;;;12.10;99.90;;;;;;5029831;28;20050;-70
2023/01/16 11:39:47;;;;;;;4.43;2.75;;;12.50;99.90;;;;;;5028010;28;20067;-69
2023/01/16 11:48:22;;;;;;;5.72;4.18;;;12.00;99.90;;;;;;5019550;28;20570;-70
2023/01/16 11:51:02;;;;;;;4.40;3.15;;;11.50;99.90;;;;;;5020374;28;20065;-69
2023/01/16 11:53:32;;;;;;;7.75;5.22;;;10.50;99.90;;;;;;5013529;28;20045;-70
2023/01/16 11:56:11;;;;;;;8.20;4.32;;;9.70;99.90;;;;;;5009753;28;20046;-68
2023/01/16 11:59:16;;;;;;;4.55;3.30;;;9.10;99.90;;;;;;5010424;28;20063;-69
2023/01/16 12:02:24;;;;;;;5.88;3.05;;;8.70;99.90;;;;;;5007114;28;20104;-69
2023/01/16 12:07:59;;;;;;;4.50;3.30;;;7.90;99.90;;;;;;4990403;28;20061;-69
2023/01/16 12:10:35;;;;;;;5.22;3.15;;;7.60;99.90;;;;;;5003474;28;20049;-69
2023/01/16 12:16:17;;;;;;;7.15;3.55;;;7.20;99.90;;;;;;5014306;28;20153;-69
2023/01/16 12:18:59;;;;;;;;;;;7.10;99.90;;;;;;4988623;28;20508;-68
2023/01/16 12:21:27;;;;;;;5.85;3.35;;;7.00;99.90;;;;;;5006633;28;19928;-68
2023/01/16 12:24:29;;;;;;;8.35;4.32;;;7.00;99.90;;;;;;4992394;28;20061;-69
2023/01/16 12:27:15;;;;;;;;;;;7.20;99.90;;;;;;5002800;28;20050;-70
2023/01/16 12:30:03;;;;;;;14.80;7.25;;;7.20;99.90;;;;;;5008693;28;19932;-69
2023/01/16 12:32:45;;;;;;;6.70;2.97;;;7.40;99.90;;;;;;5020050;28;20049;-68
2023/01/16 12:35:36;;;;;;;5.47;3.53;;;7.40;99.90;;;;;;5012864;28;20042;-68
2023/01/16 12:38:18;;;;;;;5.65;3.20;;;7.30;99.90;;;;;;5010346;28;20121;-69
2023/01/16 12:40:49;;;;;;;5.70;2.83;;;7.30;99.90;;;;;;5013321;28;20516;-69
2023/01/16 12:43:44;;;;;;;3.63;2.90;;;7.20;99.90;;;;;;4996039;28;20060;-69
2023/01/16 12:46:25;;;;;;;6.10;3.38;;;7.00;99.90;;;;;;5013874;28;20056;-69
2023/01/16 12:49:30;;;;;;;9.13;3.92;;;6.90;99.90;;;;;;5010760;28;20061;-69
2023/01/16 12:52:19;;;;;;;5.93;3.33;;;6.80;99.90;;;;;;5011196;28;20046;-69
2023/01/16 12:55:15;;;;;;;5.45;2.80;;;6.70;99.90;;;;;;5012300;28;20045;-69
2023/01/16 12:58:02;;;;;;;7.13;4.00;;;6.70;99.90;;;;;;5012017;28;20076;-69
2023/01/16 13:01:04;;;;;;;6.55;3.25;;;6.70;99.90;;;;;;5026594;28;20060;-68
2023/01/16 13:03:39;;;;;;;6.93;3.20;;;6.60;99.90;;;;;;5031202;28;20079;-69
2023/01/16 13:06:13;;;;;;;4.35;3.15;;;6.60;99.90;;;;;;5032118;28;20204;-69
2023/01/16 13:08:51;;;;;;;7.28;3.30;;;6.50;99.90;;;;;;5030325;28;20496;-68
2023/01/16 13:14:31;;;;;;;4.63;3.20;;;6.50;99.90;;;;;;5027719;28;20057;-70
2023/01/16 13:17:16;;;;;;;9.10;3.28;;;6.40;99.90;;;;;;5012287;28;20600;-69
2023/01/16 13:19:59;;;;;;;4.82;2.85;;;6.30;99.90;;;;;;5010977;28;20135;-69
2023/01/16 13:22:33;;;;;;;5.32;2.92;;;6.30;99.90;;;;;;5032442;28;20075;-69
2023/01/16 13:25:14;;;;;;;6.47;2.90;;;6.40;99.90;;;;;;5015040;28;20046;-68
2023/01/16 13:27:47;;;;;;;4.82;2.92;;;6.40;99.90;;;;;;5013050;28;20508;-69
2023/01/16 13:30:19;;;;;;;4.28;2.90;;;6.40;99.90;;;;;;5032264;28;20050;-68
2023/01/16 13:33:00;;;;;;;4.25;2.80;;;6.40;99.90;;;;;;5030743;28;20091;-69
2023/01/16 13:35:44;;;;;;;4.57;2.90;;;6.40;99.90;;;;;;5031249;28;20171;-68
2023/01/16 13:38:32;;;;;;;6.45;2.90;;;6.40;99.90;;;;;;5028026;28;20069;-70
2023/01/16 13:41:22;;;;;;;6.97;2.97;;;6.30;99.90;;;;;;5025598;28;20084;-69
2023/01/16 13:47:14;;;;;;;5.50;3.35;;;6.20;99.90;;;;;;5031567;28;20432;-68
2023/01/16 13:49:47;;;;;;;5.20;3.45;;;6.20;99.90;;;;;;5013164;28;20118;-69
2023/01/16 13:52:34;;;;;;;6.55;3.28;;;6.20;99.90;;;;;;5032935;28;20042;-69
2023/01/16 13:55:06;;;;;;;5.30;3.20;;;6.10;99.90;;;;;;5006351;28;20042;-71
2023/01/16 13:57:33;;;;;;;5.18;2.95;;;6.10;99.90;;;;;;4984214;28;20060;-70
2023/01/16 14:00:11;;;;;;;6.45;3.15;;;6.10;99.90;;;;;;4988245;28;20146;-69
2023/01/16 14:02:42;;;;;;;5.15;3.45;;;6.10;99.90;;;;;;5007597;28;20055;-70
2023/01/16 14:05:23;;;;;;;4.95;3.13;;;6.10;99.90;;;;;;5007311;28;20073;-69
2023/01/16 14:10:50;;;;;;;4.35;2.97;;;6.00;99.90;;;;;;5010649;28;20046;-70
2023/01/16 14:13:22;;;;;;;4.45;3.10;;;6.00;99.90;;;;;;5010674;28;20425;-68
2023/01/16 14:18:56;;;;;;;6.60;3.47;;;6.00;99.90;;;;;;5011637;28;20164;-69
2023/01/16 14:21:36;;;;;;;5.18;3.60;;;5.90;99.90;;;;;;5018672;28;20418;-69
2023/01/16 14:24:09;;;;;;;4.80;3.17;;;5.90;99.90;;;;;;5021693;28;20631;-70
2023/01/16 14:26:50;;;;;;;4.65;3.38;;;6.00;99.90;;;;;;5030337;28;20543;-70
2023/01/16 14:29:22;;;;;;;6.93;3.00;;;6.00;99.90;;;;;;5028682;28;20049;-70
2023/01/16 14:32:13;;;;;;;6.35;3.25;;;6.00;99.90;;;;;;5014761;28;20053;-70
2023/01/16 14:34:46;;;;;;;5.85;3.25;;;6.00;99.90;;;;;;5029249;28;20755;-70
2023/01/16 14:37:23;;;;;;;4.63;2.67;;;6.10;99.90;;;;;;5019853;28;20046;-70
2023/01/16 14:39:55;;;;;;;4.55;3.25;;;6.10;99.90;;;;;;5010508;28;20048;-70
2023/01/16 14:56:48;;;;;;;6.18;3.50;;;5.90;99.90;;;;;;5010050;28;20041;-69